Time;durP1;ratioP1;P1;durP2;ratioP2;P2;SDS_P1;SDS_P2;PMS_P1;PMS_P2;Temp;Humidity;BMP_temperature;BMP_pressure;BME280_temperature;BME280_humidity;BME280_pressure;Samples;Min_cycle;Max_cycle;Signal;HPM_P1;HPM_P2
2023/05/12 00:02:13;;;;;;;7.18;4.57;;;;;;;12.32;98.04;101494.69;5031943;28;20025;-81
2023/05/12 00:04:39;;;;;;;6.68;4.57;;;;;;;12.28;98.22;101492.19;5032214;28;20091;-81
2023/05/12 00:07:05;;;;;;;7.78;4.90;;;;;;;12.23;97.89;101488.81;5031514;28;20021;-81
2023/05/12 00:09:31;;;;;;;5.78;4.30;;;;;;;12.18;97.46;101484.59;5031966;28;20412;-81
2023/05/12 00:11:56;;;;;;;6.97;4.50;;;;;;;12.13;96.91;101487.28;5032368;28;20473;-81
2023/05/12 00:14:21;;;;;;;7.07;4.70;;;;;;;12.10;98.05;101492.59;5029820;28;20605;-81
2023/05/12 00:16:50;;;;;;;7.68;4.60;;;;;;;12.08;97.34;101489.16;5031581;28;20449;-81
2023/05/12 00:19:18;;;;;;;5.20;3.78;;;;;;;12.03;97.20;101486.66;5031387;28;20100;-81
2023/05/12 00:21:43;;;;;;;6.70;4.28;;;;;;;12.00;96.79;101489.31;5031319;28;20459;-81
2023/05/12 00:24:08;;;;;;;5.82;4.30;;;;;;;11.93;96.58;101485.94;5030791;28;20113;-81
2023/05/12 00:26:34;;;;;;;7.30;4.28;;;;;;;11.92;96.68;101492.06;5031332;28;20033;-81
2023/05/12 00:28:59;;;;;;;6.13;4.40;;;;;;;11.89;97.07;101486.03;5030261;28;20095;-81
2023/05/12 00:31:24;;;;;;;6.00;4.18;;;;;;;11.84;97.28;101487.00;5031092;28;20031;-81
2023/05/12 00:33:49;;;;;;;6.00;4.25;;;;;;;11.85;97.78;101482.63;5031056;28;20041;-81
2023/05/12 00:36:15;;;;;;;5.85;3.90;;;;;;;11.85;97.57;101487.84;5031206;28;20116;-81
2023/05/12 00:38:40;;;;;;;5.38;3.85;;;;;;;11.84;97.46;101487.00;5031596;28;21133;-81
2023/05/12 00:41:06;;;;;;;5.80;4.13;;;;;;;11.80;97.29;101485.34;5031820;28;20017;-81
2023/05/12 00:43:32;;;;;;;6.70;4.30;;;;;;;11.77;97.36;101487.16;5031633;28;20037;-81
2023/05/12 00:45:58;;;;;;;6.32;3.95;;;;;;;11.74;97.83;101484.59;5030688;28;20095;-81
2023/05/12 00:48:24;;;;;;;5.85;4.03;;;;;;;11.73;97.52;101475.91;5033071;28;20108;-81
2023/05/12 00:50:49;;;;;;;7.05;4.68;;;;;;;11.70;97.91;101483.78;5031309;28;20116;-81
2023/05/12 00:53:15;;;;;;;6.80;4.50;;;;;;;11.67;97.79;101479.50;5030921;28;20057;-81
2023/05/12 00:55:40;;;;;;;6.20;4.35;;;;;;;11.66;98.25;101480.41;5031231;28;20385;-81
2023/05/12 00:58:06;;;;;;;5.70;4.20;;;;;;;11.65;98.23;101481.28;5030725;28;20028;-81
2023/05/12 01:00:32;;;;;;;6.25;4.47;;;;;;;11.66;98.25;101471.72;5031450;28;20034;-81
2023/05/12 01:02:57;;;;;;;7.13;5.30;;;;;;;11.62;98.00;101470.91;5029337;28;20584;-81
2023/05/12 01:05:29;;;;;;;7.93;5.10;;;;;;;11.62;98.77;101470.06;5031545;28;20028;-81
2023/05/12 01:07:55;;;;;;;;;;;;;;;11.64;97.41;101471.75;5029851;28;20350;-81
2023/05/12 01:10:20;;;;;;;6.65;4.75;;;;;;;11.58;97.63;101471.88;5030884;28;19921;-81
2023/05/12 01:12:47;;;;;;;7.32;5.20;;;;;;;11.58;98.62;101464.06;5029865;28;20370;-81
2023/05/12 01:15:12;;;;;;;7.50;5.47;;;;;;;11.56;98.67;101460.63;5030539;28;20049;-81
2023/05/12 01:17:40;;;;;;;7.20;5.60;;;;;;;11.56;99.29;101470.19;5031137;28;20433;-81
2023/05/12 01:20:07;;;;;;;7.25;5.43;;;;;;;11.56;99.41;101465.84;5030918;28;20097;-81
2023/05/12 01:22:32;;;;;;;8.00;5.40;;;;;;;11.57;99.47;101461.47;5031010;28;20128;-81
2023/05/12 01:25:02;;;;;;;7.32;5.40;;;;;;;11.58;99.86;101457.97;5031522;28;20508;-81
2023/05/12 01:27:28;;;;;;;10.10;5.53;;;;;;;11.61;99.49;101457.94;5029819;28;20628;-82
2023/05/12 01:29:56;;;;;;;7.10;5.65;;;;;;;11.60;99.51;101462.28;5029691;28;20034;-81
2023/05/12 01:32:22;;;;;;;8.98;5.75;;;;;;;11.60;99.18;101464.03;5030398;28;20020;-81
2023/05/12 01:34:48;;;;;;;7.63;5.55;;;;;;;11.57;99.12;101462.34;5030795;28;20108;-81
2023/05/12 01:37:13;;;;;;;7.72;5.47;;;;;;;11.55;99.24;101451.09;5030390;28;20025;-82
2023/05/12 01:39:39;;;;;;;7.10;5.55;;;;;;;11.53;99.20;101450.25;5029091;28;20052;-82
2023/05/12 01:42:04;;;;;;;7.13;5.57;;;;;;;11.50;99.62;101455.53;5030611;28;20029;-82
2023/05/12 01:44:30;;;;;;;6.68;4.90;;;;;;;11.49;99.56;101448.59;5030249;28;20087;-82
2023/05/12 01:46:55;;;;;;;6.65;5.13;;;;;;;11.43;99.83;101451.34;5030790;28;20100;-82
2023/05/12 01:49:21;;;;;;;6.47;5.07;;;;;;;11.41;98.92;101445.31;5028575;28;20033;-82
2023/05/12 01:51:46;;;;;;;6.30;4.30;;;;;;;11.41;98.38;101440.09;5030008;28;20064;-82
2023/05/12 01:54:11;;;;;;;6.53;4.18;;;;;;;11.33;99.03;101438.47;5030619;28;20045;-82
2023/05/12 01:56:37;;;;;;;7.68;4.20;;;;;;;11.31;99.22;101439.41;5029889;28;20507;-82
2023/05/12 01:59:02;;;;;;;5.40;3.83;;;;;;;11.28;99.61;101435.09;5030528;28;20112;-82
2023/05/12 02:01:27;;;;;;;5.03;3.30;;;;;;;11.26;99.29;101442.09;5029607;28;20021;-81
2023/05/12 02:03:55;;;;;;;5.15;3.40;;;;;;;11.20;99.30;101437.84;5030654;28;20068;-82
2023/05/12 02:06:21;;;;;;;4.78;3.38;;;;;;;11.19;99.41;101445.69;5030832;28;20488;-81
2023/05/12 02:08:46;;;;;;;5.03;3.50;;;;;;;11.16;99.39;101440.53;5030611;28;20021;-81
2023/05/12 02:11:11;;;;;;;3.92;2.72;;;;;;;11.14;99.79;101442.31;5030426;28;20108;-82
2023/05/12 02:13:37;;;;;;;4.70;3.30;;;;;;;11.14;99.94;101440.59;5029357;28;20034;-82
2023/05/12 02:16:02;;;;;;;4.38;3.20;;;;;;;11.14;100.00;101431.91;5030247;28;20013;-82
2023/05/12 02:18:28;;;;;;;3.75;2.65;;;;;;;11.13;100.00;101435.38;5030443;28;20048;-82
2023/05/12 02:20:53;;;;;;;4.30;2.90;;;;;;;11.12;99.55;101433.66;5034233;28;20029;-82
2023/05/12 02:23:18;;;;;;;4.97;2.58;;;;;;;11.07;99.98;101432.03;5033858;28;20648;-82
2023/05/12 02:25:43;;;;;;;4.40;2.58;;;;;;;11.06;100.00;101419.91;5034224;28;20029;-82
2023/05/12 02:28:10;;;;;;;5.53;3.15;;;;;;;11.04;100.00;101421.66;5034209;28;20152;-82
2023/05/12 02:30:36;;;;;;;4.05;2.60;;;;;;;11.04;100.00;101423.41;5033452;28;20079;-82
2023/05/12 02:33:01;;;;;;;4.00;2.72;;;;;;;11.04;100.00;101426.00;5033968;28;20025;-82
2023/05/12 02:35:27;;;;;;;4.95;2.55;;;;;;;11.01;100.00;101415.66;5033644;28;20025;-82
2023/05/12 02:37:52;;;;;;;4.20;2.90;;;;;;;11.00;100.00;101412.19;5033547;28;20025;-82
2023/05/12 02:40:17;;;;;;;4.40;2.33;;;;;;;10.99;100.00;101410.47;5033469;28;20025;-82
2023/05/12 02:42:44;;;;;;;5.25;2.50;;;;;;;10.99;100.00;101407.03;5032183;28;20017;-82
2023/05/12 02:45:10;;;;;;;5.18;2.00;;;;;;;10.98;100.00;101406.16;5031756;28;20038;-82
2023/05/12 02:47:35;;;;;;;4.63;2.20;;;;;;;10.99;100.00;101409.63;5033980;28;20025;-83
2023/05/12 02:50:01;;;;;;;3.08;2.03;;;;;;;10.96;100.00;101402.72;5033469;28;20393;-84
2023/05/12 02:52:26;;;;;;;3.08;2.00;;;;;;;10.95;100.00;101398.38;5033206;28;20062;-84
2023/05/12 02:54:52;;;;;;;3.00;2.10;;;;;;;10.95;100.00;101398.38;5032546;28;20079;-83
2023/05/12 02:57:17;;;;;;;2.50;1.98;;;;;;;10.94;100.00;101399.28;5033541;28;20017;-83
2023/05/12 02:59:42;;;;;;;3.00;1.98;;;;;;;10.90;100.00;101393.28;5031202;28;20021;-84
2023/05/12 03:02:07;;;;;;;2.90;2.00;;;;;;;10.93;100.00;101394.97;5032040;28;20357;-83
2023/05/12 03:04:33;;;;;;;3.00;2.05;;;;;;;10.94;100.00;101388.84;5033413;28;20048;-83
2023/05/12 03:06:58;;;;;;;3.80;2.30;;;;;;;10.97;100.00;101398.38;5032998;28;20056;-83
2023/05/12 03:09:23;;;;;;;2.67;2.00;;;;;;;10.99;100.00;101396.59;5031480;28;20503;-83
2023/05/12 03:11:49;;;;;;;3.85;2.00;;;;;;;10.97;100.00;101388.81;5032647;28;20488;-83
2023/05/12 03:14:14;;;;;;;3.20;2.17;;;;;;;10.97;100.00;101391.41;5032791;28;20540;-83
2023/05/12 03:16:39;;;;;;;4.78;2.67;;;;;;;10.97;100.00;101391.41;5032258;28;20025;-83
2023/05/12 03:19:04;;;;;;;3.53;2.50;;;;;;;10.97;100.00;101393.16;5033278;28;20542;-83
2023/05/12 03:21:30;;;;;;;5.43;2.58;;;;;;;10.95;100.00;101382.78;5032612;28;20028;-83
2023/05/12 03:23:56;;;;;;;4.38;2.90;;;;;;;10.95;100.00;101380.16;5032125;28;20102;-83
2023/05/12 03:26:21;;;;;;;4.05;2.72;;;;;;;10.95;100.00;101385.38;5033288;28;20496;-83
2023/05/12 03:28:47;;;;;;;4.93;2.90;;;;;;;10.94;100.00;101378.44;5032775;28;20030;-83
2023/05/12 03:31:12;;;;;;;5.57;3.42;;;;;;;10.95;100.00;101380.16;5032132;28;20108;-82
2023/05/12 03:33:37;;;;;;;5.65;3.35;;;;;;;10.96;100.00;101371.47;5032219;28;20076;-83
2023/05/12 03:36:03;;;;;;;6.68;3.30;;;;;;;10.96;100.00;101368.88;5032075;28;20030;-82
2023/05/12 03:38:29;;;;;;;6.07;3.45;;;;;;;10.97;100.00;101370.59;5032986;28;20026;-83
2023/05/12 03:41:05;;;;;;;5.30;3.22;;;;;;;10.96;100.00;101366.25;5030668;28;20025;-83
2023/05/12 03:43:31;;;;;;;5.03;3.13;;;;;;;10.95;100.00;101363.69;5031865;28;20104;-83
2023/05/12 03:45:56;;;;;;;6.13;3.75;;;;;;;10.95;100.00;101359.34;5028399;28;20112;-83
2023/05/12 03:48:21;;;;;;;7.90;4.07;;;;;;;10.95;100.00;101358.50;5029640;28;20025;-83
2023/05/12 03:50:46;;;;;;;6.50;3.85;;;;;;;10.94;100.00;101357.63;5031316;28;20049;-83
2023/05/12 03:53:12;;;;;;;7.28;4.20;;;;;;;10.98;100.00;101358.44;5031016;28;20035;-83
2023/05/12 03:55:37;;;;;;;7.20;4.10;;;;;;;10.98;100.00;101359.28;5030703;28;20111;-83
2023/05/12 03:58:03;;;;;;;8.20;4.50;;;;;;;10.99;100.00;101357.56;5029405;28;20072;-83
2023/05/12 04:00:28;;;;;;;9.95;5.00;;;;;;;10.99;100.00;101361.00;5030991;28;20029;-83
2023/05/12 04:02:53;;;;;;;8.35;4.72;;;;;;;11.00;100.00;101364.47;5031047;28;20381;-82
2023/05/12 04:05:18;;;;;;;9.70;5.30;;;;;;;11.00;100.00;101356.66;5031224;28;20393;-82
2023/05/12 04:07:44;;;;;;;10.45;4.97;;;;;;;11.01;100.00;101359.22;5027658;28;20086;-82
2023/05/12 04:10:09;;;;;;;10.43;5.78;;;;;;;11.02;100.00;101355.75;5030335;28;20029;-82
2023/05/12 04:12:34;;;;;;;10.20;5.63;;;;;;;11.01;100.00;101354.03;5030217;28;20081;-82
2023/05/12 04:15:00;;;;;;;12.52;6.22;;;;;;;11.03;100.00;101359.19;5029776;28;20380;-82
2023/05/12 04:17:25;;;;;;;12.45;6.65;;;;;;;11.04;100.00;101359.19;5029168;28;20117;-82
2023/05/12 04:19:51;;;;;;;11.38;6.57;;;;;;;11.07;100.00;101366.06;5031555;28;20036;-82
2023/05/12 04:22:16;;;;;;;15.13;7.30;;;;;;;11.07;100.00;101363.47;5032010;28;20100;-82
2023/05/12 04:24:42;;;;;;;12.88;7.22;;;;;;;11.09;100.00;101361.69;5031517;28;20109;-82
2023/05/12 04:27:07;;;;;;;13.90;7.53;;;;;;;11.11;100.00;101361.66;5031004;28;20037;-82
2023/05/12 04:29:32;;;;;;;16.40;7.45;;;;;;;11.12;100.00;101365.97;5031927;28;20117;-83
2023/05/12 04:31:58;;;;;;;15.15;8.13;;;;;;;11.12;100.00;101360.75;5030851;28;20033;-82
2023/05/12 04:34:24;;;;;;;14.63;8.00;;;;;;;11.12;100.00;101365.97;5029537;28;20435;-82
2023/05/12 04:36:49;;;;;;;16.17;8.40;;;;;;;11.13;100.00;101357.25;5031379;28;20033;-82
2023/05/12 04:39:14;;;;;;;16.20;8.35;;;;;;;11.15;100.00;101355.50;5030803;28;20033;-82
2023/05/12 04:41:40;;;;;;;17.77;9.00;;;;;;;11.15;100.00;101353.75;5030236;28;20035;-81
2023/05/12 04:44:05;;;;;;;16.33;8.82;;;;;;;11.18;100.00;101360.66;5030693;28;20100;-82
2023/05/12 04:46:30;;;;;;;18.00;9.02;;;;;;;11.19;100.00;101362.38;5031537;28;20033;-82
2023/05/12 04:48:56;;;;;;;16.77;9.07;;;;;;;11.20;100.00;101357.13;5029320;28;20025;-82
2023/05/12 04:51:21;;;;;;;16.45;9.27;;;;;;;11.24;100.00;101370.94;5028670;28;20120;-82
2023/05/12 04:53:46;;;;;;;18.23;9.18;;;;;;;11.26;100.00;101366.56;5029552;28;20384;-83
2023/05/12 04:56:11;;;;;;;17.85;9.73;;;;;;;11.26;100.00;101366.56;5028807;28;20091;-82
2023/05/12 04:58:37;;;;;;;18.60;10.38;;;;;;;11.29;100.00;101376.91;5029826;28;20630;-83
2023/05/12 05:01:02;;;;;;;19.55;9.90;;;;;;;11.31;100.00;101376.91;5027593;28;20041;-82
2023/05/12 05:03:28;;;;;;;19.52;10.20;;;;;;;11.32;100.00;101374.25;5028286;28;20396;-82
2023/05/12 05:05:53;;;;;;;18.23;10.20;;;;;;;11.35;100.00;101378.56;5029272;28;20025;-82
2023/05/12 05:08:18;;;;;;;19.17;10.48;;;;;;;11.37;100.00;101385.44;5027939;28;20094;-82
2023/05/12 05:10:43;;;;;;;18.92;10.95;;;;;;;11.39;100.00;101381.06;5027390;28;20048;-82
2023/05/12 05:13:09;;;;;;;23.63;11.32;;;;;;;11.42;100.00;101387.09;5024514;28;20041;-82
2023/05/12 05:15:34;;;;;;;20.88;11.13;;;;;;;11.43;100.00;101386.22;5028630;28;20033;-82
2023/05/12 05:17:59;;;;;;;17.70;10.38;;;;;;;11.47;100.00;101387.84;5026977;28;20065;-82
2023/05/12 05:20:25;;;;;;;21.67;12.50;;;;;;;11.48;100.00;101390.44;5027906;28;20122;-82
2023/05/12 05:22:50;;;;;;;20.15;11.38;;;;;;;11.49;100.00;101392.16;5029317;28;20464;-82
2023/05/12 05:25:15;;;;;;;19.48;10.77;;;;;;;11.51;100.00;101398.19;5029818;28;20033;-82
2023/05/12 05:27:40;;;;;;;20.83;11.35;;;;;;;11.56;100.00;101402.44;5028074;28;20028;-82
2023/05/12 05:30:07;;;;;;;21.52;11.77;;;;;;;11.58;100.00;101403.25;5029048;28;20029;-82
2023/05/12 05:32:39;;;;;;;21.27;12.48;;;;;;;11.60;100.00;101411.91;5026273;28;20332;-82
2023/05/12 05:35:04;;;;;;;20.88;11.40;;;;;;;11.63;100.00;101414.44;5029435;28;20596;-82
2023/05/12 05:37:30;;;;;;;20.50;11.07;;;;;;;11.66;100.00;101410.03;5031309;28;20105;-82
2023/05/12 05:39:55;;;;;;;21.08;11.88;;;;;;;11.69;100.00;101404.75;5030243;28;20031;-82
2023/05/12 05:42:20;;;;;;;20.05;11.30;;;;;;;11.74;100.00;101416.84;5031136;28;20304;-82
2023/05/12 05:44:46;;;;;;;19.77;11.93;;;;;;;11.77;100.00;101419.38;5031386;28;20049;-82
2023/05/12 05:47:11;;;;;;;18.85;10.90;;;;;;;11.82;100.00;101422.72;5031234;28;20033;-82
2023/05/12 05:49:36;;;;;;;21.50;11.93;;;;;;;11.90;100.00;101427.78;5030754;28;20101;-82
2023/05/12 05:52:02;;;;;;;21.70;12.40;;;;;;;11.97;100.00;101426.75;5031478;28;20040;-82
2023/05/12 05:54:27;;;;;;;21.52;12.35;;;;;;;12.05;100.00;101431.84;5033451;28;20392;-82
2023/05/12 05:56:52;;;;;;;21.13;12.38;;;;;;;12.13;100.00;101430.78;5034236;28;20021;-82
2023/05/12 05:59:18;;;;;;;22.85;12.68;;;;;;;12.24;100.00;101440.97;5034923;28;20052;-82
2023/05/12 06:01:44;;;;;;;21.67;12.73;;;;;;;12.34;100.00;101438.13;5034774;28;20026;-82
2023/05/12 06:04:10;;;;;;;23.77;13.63;;;;;;;12.42;100.00;101441.44;5035475;28;20021;-82
2023/05/12 06:06:35;;;;;;;23.63;13.20;;;;;;;12.50;100.00;101439.47;5035060;28;20400;-82
2023/05/12 06:09:00;;;;;;;24.45;13.35;;;;;;;12.59;100.00;101449.72;5035162;28;20025;-82
2023/05/12 06:11:25;;;;;;;20.33;12.73;;;;;;;12.66;100.00;101449.53;5033964;28;20160;-82
2023/05/12 06:13:51;;;;;;;19.75;12.15;;;;;;;12.73;100.00;101457.19;5034547;28;20082;-82
2023/05/12 06:16:16;;;;;;;21.52;12.35;;;;;;;12.78;100.00;101454.47;5034934;28;20033;-82
2023/05/12 06:18:42;;;;;;;21.00;12.90;;;;;;;12.85;100.00;101466.47;5034529;28;20021;-82
2023/05/12 06:21:07;;;;;;;21.15;12.68;;;;;;;12.92;100.00;101461.09;5033261;28;20118;-82
2023/05/12 06:23:32;;;;;;;18.52;11.77;;;;;;;12.97;100.00;101464.47;5033704;28;20021;-82
2023/05/12 06:25:58;;;;;;;19.95;12.85;;;;;;;13.00;100.00;101473.06;5034663;28;20017;-82
2023/05/12 06:28:23;;;;;;;17.80;12.00;;;;;;;13.03;100.00;101474.72;5034452;28;20036;-82
2023/05/12 06:30:48;;;;;;;19.23;12.77;;;;;;;13.05;100.00;101478.16;5034714;28;20437;-82
2023/05/12 06:33:13;;;;;;;19.27;12.57;;;;;;;13.10;100.00;101485.88;5032111;28;20112;-82
2023/05/12 06:35:39;;;;;;;16.88;11.60;;;;;;;13.09;100.00;101477.19;5034258;28;20566;-82
2023/05/12 06:38:04;;;;;;;18.13;12.93;;;;;;;13.12;100.00;101490.19;5034459;28;20033;-82
2023/05/12 06:40:29;;;;;;;16.40;11.70;;;;;;;13.16;100.00;101481.34;5033800;28;20079;-82
2023/05/12 06:42:54;;;;;;;16.23;11.32;;;;;;;13.23;100.00;101484.69;5032988;28;20381;-82
2023/05/12 06:45:22;;;;;;;17.38;11.88;;;;;;;13.34;100.00;101489.59;5034588;28;20029;-82
2023/05/12 06:47:47;;;;;;;17.27;11.63;;;;;;;13.46;100.00;101491.03;5032463;28;20025;-82
2023/05/12 06:50:14;;;;;;;15.25;10.38;;;;;;;13.57;100.00;101495.97;5034057;28;20068;-82
2023/05/12 06:52:39;;;;;;;16.15;10.80;;;;;;;13.64;100.00;101497.53;5034548;28;20025;-82
2023/05/12 06:55:05;;;;;;;16.30;10.82;;;;;;;13.69;100.00;101511.31;5034324;28;20025;-82
2023/05/12 06:57:31;;;;;;;14.25;10.80;;;;;;;13.72;100.00;101511.25;5032808;28;20030;-82
2023/05/12 06:59:56;;;;;;;16.45;9.82;;;;;;;13.79;100.00;101511.91;5033814;28;20037;-82
2023/05/12 07:02:21;;;;;;;15.05;10.18;;;;;;;13.85;99.65;101506.53;5034044;28;20030;-82
2023/05/12 07:04:47;;;;;;;13.73;10.05;;;;;;;13.89;99.05;101522.97;5033567;28;20456;-82
2023/05/12 07:07:12;;;;;;;14.90;10.27;;;;;;;13.88;98.53;101516.03;5032208;28;20041;-82
2023/05/12 07:09:39;;;;;;;11.88;8.98;;;;;;;13.87;98.91;101519.53;5034123;28;20037;-82
2023/05/12 07:12:05;;;;;;;13.98;9.40;;;;;;;13.86;99.01;101513.47;5031968;28;20465;-83
2023/05/12 07:14:30;;;;;;;12.38;9.05;;;;;;;13.88;99.06;101521.25;5033489;28;20043;-81
2023/05/12 07:16:56;;;;;;;12.20;8.48;;;;;;;13.90;98.35;101514.22;5033225;28;20025;-82
2023/05/12 07:19:21;;;;;;;11.15;8.27;;;;;;;13.93;98.58;101514.16;5033052;28;20052;-82
2023/05/12 07:21:47;;;;;;;11.27;7.82;;;;;;;13.99;98.17;101519.22;5031517;28;20029;-82
2023/05/12 07:24:12;;;;;;;11.45;7.97;;;;;;;14.04;97.32;101517.28;5033433;28;20032;-82
2023/05/12 07:26:38;;;;;;;10.25;7.20;;;;;;;14.03;96.76;101520.81;5033802;28;20079;-82
2023/05/12 07:29:04;;;;;;;10.30;7.10;;;;;;;14.01;95.34;101522.59;5029898;28;20057;-81
2023/05/12 07:31:30;;;;;;;9.45;7.13;;;;;;;14.02;96.31;101526.94;5026960;28;20116;-81
2023/05/12 07:33:55;;;;;;;8.25;6.10;;;;;;;14.04;95.39;101538.22;5030188;28;20025;-81
2023/05/12 07:36:20;;;;;;;7.85;6.15;;;;;;;14.05;94.78;101534.72;5030370;28;20036;-82
2023/05/12 07:38:46;;;;;;;7.88;5.88;;;;;;;14.09;94.09;101532.88;5030001;28;20030;-82
2023/05/12 07:41:11;;;;;;;8.18;6.18;;;;;;;14.13;94.29;101525.78;5027978;28;20674;-82
2023/05/12 07:43:36;;;;;;;9.65;6.10;;;;;;;14.18;95.15;101529.97;5024961;28;20465;-82
2023/05/12 07:46:02;;;;;;;9.18;6.47;;;;;;;14.23;93.64;101537.69;5028265;28;20025;-82
2023/05/12 07:48:27;;;;;;;8.70;6.15;;;;;;;14.26;93.44;101535.81;5030840;28;20060;-82
2023/05/12 07:50:52;;;;;;;7.72;6.40;;;;;;;14.31;93.28;101520.00;5026107;28;20065;-82
2023/05/12 07:53:18;;;;;;;8.23;6.32;;;;;;;14.33;92.18;101535.66;5023660;28;20479;-82
2023/05/12 07:55:44;;;;;;;7.00;5.90;;;;;;;14.37;93.97;101539.91;5023838;28;20029;-82
2023/05/12 07:58:10;;;;;;;8.73;6.43;;;;;;;14.40;92.88;101539.81;5028211;28;20418;-82
2023/05/12 08:00:35;;;;;;;8.30;6.45;;;;;;;14.44;92.62;101537.94;5023194;28;20021;-81
2023/05/12 08:03:01;;;;;;;7.22;6.00;;;;;;;14.47;92.05;101540.47;5021087;28;20033;-81
2023/05/12 08:05:26;;;;;;;6.53;5.60;;;;;;;14.49;91.62;101543.91;5025982;28;20028;-81
2023/05/12 08:07:51;;;;;;;7.07;5.32;;;;;;;14.47;90.91;101546.56;5019071;28;20400;-81
2023/05/12 08:10:18;;;;;;;6.95;5.07;;;;;;;14.50;92.08;101546.47;5018875;28;20037;-81
2023/05/12 08:12:43;;;;;;;7.20;5.07;;;;;;;14.53;90.71;101550.72;5017245;28;20031;-82
2023/05/12 08:15:08;;;;;;;6.43;4.72;;;;;;;14.52;89.49;101554.25;5020618;28;20025;-81
2023/05/12 08:17:34;;;;;;;7.28;4.80;;;;;;;14.49;88.53;101560.44;5023909;28;20025;-81
2023/05/12 08:20:02;;;;;;;5.63;4.63;;;;;;;14.48;89.47;101558.75;5025011;28;20033;-81
2023/05/12 08:22:28;;;;;;;5.60;4.85;;;;;;;14.53;86.73;101563.81;5023474;28;20025;-80
2023/05/12 08:24:53;;;;;;;7.43;4.05;;;;;;;14.58;85.69;101569.78;5022115;28;20032;-80
2023/05/12 08:27:19;;;;;;;4.97;3.67;;;;;;;14.60;85.99;101567.97;5016251;28;20444;-81
2023/05/12 08:29:44;;;;;;;4.25;3.50;;;;;;;14.66;87.07;101566.94;5052918;28;20029;-81
2023/05/12 08:32:10;;;;;;;5.50;4.00;;;;;;;14.70;85.59;101569.44;5022044;28;20179;-81
2023/05/12 08:34:36;;;;;;;4.70;3.90;;;;;;;14.78;85.64;101576.19;5021241;28;20032;-82
2023/05/12 08:37:01;;;;;;;4.45;3.28;;;;;;;14.87;86.64;101575.91;5020823;28;20029;-80
2023/05/12 08:39:29;;;;;;;4.60;3.45;;;;;;;14.97;83.84;101576.47;5016425;28;20041;-80
2023/05/12 08:42:21;;;;;;;4.97;3.90;;;;;;;15.04;84.68;101572.75;5020606;28;20036;-80
2023/05/12 08:44:47;;;;;;;5.70;3.90;;;;;;;15.13;84.64;101567.19;5022092;28;21607;-80
2023/05/12 08:47:14;;;;;;;4.95;3.90;;;;;;;15.24;85.80;101579.09;5021530;28;20545;-81
2023/05/12 08:49:42;;;;;;;6.85;4.20;;;;;;;15.32;85.51;101583.16;5023106;28;20621;-81
2023/05/12 08:52:09;;;;;;;4.95;3.90;;;;;;;15.44;87.34;101581.03;5024308;28;20132;-81
2023/05/12 08:54:37;;;;;;;4.38;3.55;;;;;;;15.51;84.23;101585.16;5023180;28;20056;-80
2023/05/12 08:57:03;;;;;;;5.05;3.42;;;;;;;15.54;84.08;101582.41;5021592;28;20060;-80
2023/05/12 08:59:28;;;;;;;4.57;3.60;;;;;;;15.56;81.82;101591.09;5021402;28;20049;-81
2023/05/12 09:01:54;;;;;;;4.03;3.28;;;;;;;15.60;82.75;101586.59;5019814;28;20132;-81
2023/05/12 09:04:19;;;;;;;4.10;3.10;;;;;;;15.60;81.29;101591.84;5020204;28;20498;-81
2023/05/12 09:06:45;;;;;;;4.18;3.20;;;;;;;15.58;81.22;101589.28;5017909;28;20037;-81
2023/05/12 09:09:13;;;;;;;3.97;3.30;;;;;;;15.62;82.08;101592.66;5020663;28;20025;-80
2023/05/12 09:11:40;;;;;;;5.38;3.03;;;;;;;15.60;80.20;101594.47;5024106;28;20032;-81
2023/05/12 09:14:24;;;;;;;4.45;2.90;;;;;;;15.59;81.25;101596.22;5020422;28;20056;-80
2023/05/12 09:16:57;;;;;;;4.45;3.00;;;;;;;15.61;81.71;101591.78;5047438;28;20039;-81
2023/05/12 09:19:22;;;;;;;4.30;3.05;;;;;;;15.65;82.56;101595.16;5020463;28;20025;-81
2023/05/12 09:21:48;;;;;;;3.97;3.03;;;;;;;15.65;80.09;101599.56;5020411;28;20033;-79
2023/05/12 09:24:13;;;;;;;3.80;2.50;;;;;;;15.59;78.51;101604.09;5018601;28;20059;-81
2023/05/12 09:26:50;;;;;;;4.03;2.72;;;;;;;15.53;80.13;101596.47;5024988;28;20053;-86
2023/05/12 09:29:16;;;;;;;3.50;2.28;;;;;;;15.48;79.40;101598.38;5023820;28;20048;-76
2023/05/12 09:31:52;;;;;;;4.57;2.65;;;;;;;15.53;81.76;101599.09;5024563;28;20037;-79
2023/05/12 09:34:17;;;;;;;6.05;2.53;;;;;;;15.56;78.29;101598.94;5024697;28;20029;-79
2023/05/12 09:36:44;;;;;;;3.15;2.60;;;;;;;15.58;77.68;101598.91;5017485;28;20437;-79
2023/05/12 09:39:10;;;;;;;4.05;2.97;;;;;;;15.55;77.71;101610.34;5017847;28;20109;-79
2023/05/12 09:41:40;;;;;;;3.25;2.53;;;;;;;15.53;75.65;101613.94;5018729;28;20121;-79
2023/05/12 09:44:07;;;;;;;4.57;2.90;;;;;;;15.52;76.99;101612.22;5019597;28;20033;-79
2023/05/12 09:46:33;;;;;;;3.53;2.70;;;;;;;15.54;76.29;101610.41;5020166;28;20033;-84
2023/05/12 09:48:58;;;;;;;3.72;2.88;;;;;;;15.61;77.26;101609.31;5020698;28;20091;-81
2023/05/12 09:51:25;;;;;;;4.25;2.80;;;;;;;15.70;76.02;101618.63;5020660;28;20073;-78
2023/05/12 09:53:51;;;;;;;3.40;2.35;;;;;;;15.76;76.07;101613.16;5018742;28;20034;-79
2023/05/12 09:56:17;;;;;;;3.47;2.53;;;;;;;15.82;77.23;101618.19;5019215;28;20383;-80
2023/05/12 09:58:45;;;;;;;3.38;2.33;;;;;;;15.90;75.87;101631.91;5021861;28;20063;-80
2023/05/12 10:01:12;;;;;;;3.08;2.50;;;;;;;15.98;74.49;101633.41;5019051;28;20057;-80
2023/05/12 10:03:41;;;;;;;3.35;2.35;;;;;;;16.05;75.22;101627.03;5016885;28;20038;-79
2023/05/12 10:06:28;;;;;;;4.00;2.50;;;;;;;16.12;75.34;101620.63;5019416;28;20045;-79
2023/05/12 10:09:14;;;;;;;2.50;2.17;;;;;;;16.20;76.11;101618.59;5003214;28;20361;-80
2023/05/12 10:11:40;;;;;;;3.83;2.75;;;;;;;16.21;74.73;101624.69;5018669;28;20033;-80
2023/05/12 10:14:08;;;;;;;3.45;2.70;;;;;;;16.18;73.06;101619.56;5021630;28;20099;-79
2023/05/12 10:16:34;;;;;;;2.63;2.30;;;;;;;16.14;73.71;101629.31;5017069;28;20021;-80
2023/05/12 10:19:04;;;;;;;2.75;2.35;;;;;;;16.15;75.12;101622.28;5017683;28;20168;-79
2023/05/12 10:21:30;;;;;;;3.72;2.58;;;;;;;16.19;75.03;101616.88;5020059;28;20028;-80
2023/05/12 10:23:55;;;;;;;4.18;2.75;;;;;;;16.25;74.02;101623.69;5024539;28;20025;-80
2023/05/12 10:26:21;;;;;;;3.55;2.60;;;;;;;16.32;72.63;101632.19;5023096;28;20037;-79
2023/05/12 10:28:47;;;;;;;4.00;2.55;;;;;;;16.32;73.54;101632.19;5021712;28;20029;-80
2023/05/12 10:31:13;;;;;;;2.90;2.45;;;;;;;16.30;72.48;101634.00;5016892;28;20484;-80
2023/05/12 10:33:38;;;;;;;3.90;2.42;;;;;;;16.33;73.57;101626.03;5017919;28;20029;-80
2023/05/12 10:36:14;;;;;;;3.35;2.60;;;;;;;16.36;72.85;101633.78;5021313;28;20045;-80
2023/05/12 10:38:40;;;;;;;4.18;2.70;;;;;;;16.38;72.59;101637.22;5021479;28;20037;-80
2023/05/12 10:41:05;;;;;;;3.65;2.80;;;;;;;16.35;71.46;101639.94;5023264;28;20045;-80
2023/05/12 10:43:40;;;;;;;3.63;2.55;;;;;;;16.31;72.53;101641.81;5025649;28;20477;-80
2023/05/12 10:46:07;;;;;;;3.90;2.60;;;;;;;16.34;72.63;101648.75;5023059;28;20113;-80
2023/05/12 10:48:32;;;;;;;4.45;2.72;;;;;;;16.36;70.97;101639.03;5027054;28;20041;-80
2023/05/12 10:51:06;;;;;;;3.78;2.50;;;;;;;16.41;72.94;101642.31;5026151;28;20111;-80
2023/05/12 10:53:36;;;;;;;3.35;2.40;;;;;;;16.48;72.00;101640.34;5024876;28;20041;-80
2023/05/12 10:56:06;;;;;;;2.95;2.53;;;;;;;16.59;73.65;101650.44;5025092;28;20045;-81
2023/05/12 10:58:31;;;;;;;3.50;2.72;;;;;;;16.67;72.06;101651.00;5027208;28;20427;-80
2023/05/12 11:01:04;;;;;;;4.28;2.83;;;;;;;16.74;71.59;101651.63;5027427;28;20419;-79
2023/05/12 11:03:32;;;;;;;3.42;2.30;;;;;;;16.83;71.60;101646.00;5026646;28;20021;-78
2023/05/12 11:05:59;;;;;;;5.75;2.60;;;;;;;16.93;71.23;101652.63;5025999;28;20029;-80
2023/05/12 11:08:25;;;;;;;3.45;2.55;;;;;;;17.01;71.51;101648.84;5027023;28;20033;-80
2023/05/12 11:10:50;;;;;;;4.40;2.70;;;;;;;17.07;69.06;101652.09;5027233;28;20037;-81
2023/05/12 11:13:17;;;;;;;3.53;2.63;;;;;;;17.14;69.42;101650.09;5022309;28;20037;-81
2023/05/12 11:15:43;;;;;;;5.30;2.60;;;;;;;17.16;68.46;101652.63;5022933;28;20108;-80